Time;durP1;ratioP1;P1;durP2;ratioP2;P2;SDS_P1;SDS_P2;PMS_P1;PMS_P2;Temp;Humidity;BMP_temperature;BMP_pressure;BME280_temperature;BME280_humidity;BME280_pressure;Samples;Min_cycle;Max_cycle;Signal;HPM_P1;HPM_P2
2021/12/22 00:02:59;;;;;;;3.07;2.83;;;;;;;-6.48;64.33;102871.38;6028520;29;20261;-73
2021/12/22 00:06:04;;;;;;;3.30;3.00;;;;;;;-6.13;63.31;102864.97;6028959;29;20201;-74
2021/12/22 00:09:11;;;;;;;3.27;2.93;;;;;;;-6.55;65.31;102874.41;6028838;29;20250;-74
2021/12/22 00:12:16;;;;;;;4.60;3.57;;;;;;;-6.59;65.22;102871.97;6028695;29;20238;-74
2021/12/22 00:15:21;;;;;;;7.93;3.77;;;;;;;-6.68;64.87;102877.84;6029516;29;20201;-74
2021/12/22 00:18:27;;;;;;;2.97;2.87;;;;;;;-6.67;64.62;102869.72;6029409;29;20195;-74
2021/12/22 00:21:32;;;;;;;3.27;3.07;;;;;;;-6.59;64.13;102880.84;6029269;29;20194;-75
2021/12/22 00:24:40;;;;;;;3.20;3.10;;;;;;;-6.61;64.07;102880.09;6027960;29;20396;-74
2021/12/22 00:27:45;;;;;;;4.33;3.63;;;;;;;-6.65;64.66;102886.56;6029234;29;20224;-74
2021/12/22 00:30:50;;;;;;;2.83;2.63;;;;;;;-6.21;63.75;102883.25;6028390;29;20194;-74
2021/12/22 00:33:57;;;;;;;4.03;3.00;;;;;;;-6.35;63.88;102886.69;6012243;29;20234;-74
2021/12/22 00:37:01;;;;;;;3.00;2.80;;;;;;;-6.22;63.57;102876.16;6027624;29;20261;-74
2021/12/22 00:40:09;;;;;;;4.63;3.03;;;;;;;-6.15;63.07;102883.75;6027660;29;20269;-75
2021/12/22 00:43:16;;;;;;;3.37;3.00;;;;;;;-6.32;63.71;102880.31;6027918;29;20224;-74
2021/12/22 00:46:20;;;;;;;3.03;2.93;;;;;;;-6.66;65.29;102887.50;6028502;29;20193;-74
2021/12/22 00:49:25;;;;;;;3.27;3.00;;;;;;;-6.40;65.27;102887.88;6027371;29;20392;-74
2021/12/22 00:52:29;;;;;;;3.60;3.20;;;;;;;-6.24;64.26;102883.41;6027288;29;20243;-75
2021/12/22 00:55:36;;;;;;;3.87;3.57;;;;;;;-6.26;63.68;102890.66;6027324;29;20219;-75
2021/12/22 00:58:41;;;;;;;3.90;3.60;;;;;;;-6.20;63.50;102887.63;6028328;29;20261;-75
2021/12/22 01:01:45;;;;;;;4.10;3.23;;;;;;;-6.24;63.21;102884.28;6027209;29;20478;-75
2021/12/22 01:04:49;;;;;;;4.07;3.60;;;;;;;-6.21;63.62;102884.09;6027221;29;20229;-75
2021/12/22 01:07:54;;;;;;;5.13;3.50;;;;;;;-6.53;64.50;102901.91;6028488;29;20201;-74
2021/12/22 01:11:00;;;;;;;3.33;3.23;;;;;;;-6.55;64.72;102895.81;6027179;29;20312;-74
2021/12/22 01:14:06;;;;;;;3.83;3.53;;;;;;;-6.93;66.41;102899.66;6026973;29;20517;-74
2021/12/22 01:17:14;;;;;;;8.90;3.67;;;;;;;-6.74;65.91;102889.69;6026892;29;20368;-75
2021/12/22 01:20:23;;;;;;;3.37;3.17;;;;;;;-6.75;65.61;102882.63;6028193;29;20287;-75
2021/12/22 01:23:33;;;;;;;3.80;3.50;;;;;;;-6.41;64.29;102879.00;6027797;29;20204;-75
2021/12/22 01:26:41;;;;;;;4.10;3.83;;;;;;;-6.96;66.56;102878.44;6027631;29;20195;-74
2021/12/22 01:29:45;;;;;;;7.83;3.90;;;;;;;-6.55;65.14;102876.22;6026634;29;20393;-74
2021/12/22 01:32:53;;;;;;;4.43;3.83;;;;;;;-6.71;64.59;102872.66;6027562;29;20195;-74
2021/12/22 01:35:57;;;;;;;6.17;4.87;;;;;;;-7.01;65.66;102875.16;6027355;29;20248;-74
2021/12/22 01:39:02;;;;;;;4.73;4.30;;;;;;;-6.48;64.78;102871.38;6027639;29;20225;-74
2021/12/22 01:42:09;;;;;;;5.13;3.70;;;;;;;-6.54;63.85;102865.44;6027216;29;20194;-75
2021/12/22 01:45:29;;;;;;;7.23;4.30;;;;;;;-7.04;65.09;102869.97;6027570;29;20199;-75
2021/12/22 01:52:08;;;;;;;5.53;3.47;;;;;;;-7.31;66.41;102884.72;6026135;29;20196;-76
2021/12/22 01:55:25;;;;;;;7.20;4.20;;;;;;;-6.69;63.86;102876.97;6027312;29;20250;-75
2021/12/22 01:58:36;;;;;;;9.90;4.80;;;;;;;-6.73;63.99;102880.75;6027376;29;20195;-75
2021/12/22 02:01:40;;;;;;;5.30;3.90;;;;;;;-6.96;64.83;102878.44;6025924;29;20261;-75
2021/12/22 02:04:45;;;;;;;4.50;4.23;;;;;;;-6.92;64.82;102877.31;6025564;29;20506;-75
2021/12/22 02:07:56;;;;;;;6.23;4.50;;;;;;;-7.03;65.42;102882.34;6026804;29;20205;-75
2021/12/22 02:11:00;;;;;;;5.83;4.20;;;;;;;-6.79;64.19;102882.88;6026426;29;20268;-75
2021/12/22 02:14:08;;;;;;;4.67;4.27;;;;;;;-6.64;63.88;102893.59;6026665;29;20261;-75
2021/12/22 02:17:15;;;;;;;5.27;4.20;;;;;;;-6.73;63.85;102891.44;6026571;29;20194;-75
2021/12/22 02:20:21;;;;;;;6.13;4.27;;;;;;;-6.79;63.74;102897.09;6027002;29;20198;-75
2021/12/22 02:23:25;;;;;;;7.30;4.33;;;;;;;-6.98;64.21;102891.03;6026264;29;20199;-75
2021/12/22 02:26:36;;;;;;;8.13;4.17;;;;;;;-7.12;64.75;102893.53;6026650;29;20201;-75
2021/12/22 02:29:46;;;;;;;4.40;4.10;;;;;;;-7.13;64.30;102894.47;6026371;29;20210;-75
2021/12/22 02:36:27;;;;;;;6.30;3.93;;;;;;;-7.13;64.11;102898.97;6016425;29;20253;-75
2021/12/22 02:39:32;;;;;;;4.00;3.63;;;;;;;-7.12;64.16;102898.88;6025996;29;20194;-75
2021/12/22 02:42:37;;;;;;;4.90;4.27;;;;;;;-6.85;63.32;102894.75;6026053;29;20262;-75
2021/12/22 02:45:42;;;;;;;5.43;4.93;;;;;;;-6.96;63.21;102894.47;6025105;29;20233;-75
2021/12/22 02:48:49;;;;;;;7.33;4.57;;;;;;;-7.30;63.03;102902.47;6025372;29;20193;-75
2021/12/22 02:51:55;;;;;;;8.83;5.03;;;;;;;-7.06;62.57;102903.03;6025833;29;20201;-75
2021/12/22 02:55:01;;;;;;;9.20;4.70;;;;;;;-6.95;61.59;102890.84;6025976;29;20221;-75
2021/12/22 02:58:09;;;;;;;7.03;4.67;;;;;;;-6.83;61.58;102900.91;6025228;29;20194;-75
2021/12/22 03:01:28;;;;;;;6.03;5.00;;;;;;;-7.00;61.12;102882.19;6026039;29;20201;-75
2021/12/22 03:04:42;;;;;;;7.07;4.80;;;;;;;-7.33;62.56;102894.63;6025674;29;20229;-75
2021/12/22 03:07:48;;;;;;;6.83;4.77;;;;;;;-7.10;61.62;102902.31;6025568;29;20233;-76
2021/12/22 03:10:53;;;;;;;6.83;4.70;;;;;;;-7.49;62.05;102904.38;6025886;29;20244;-75
2021/12/22 03:13:57;;;;;;;4.73;4.37;;;;;;;-7.18;61.80;102904.50;6025685;29;20201;-75
2021/12/22 03:17:02;;;;;;;4.40;4.00;;;;;;;-7.24;61.92;102905.72;6024593;29;20506;-75
2021/12/22 03:20:12;;;;;;;6.93;3.80;;;;;;;-7.30;63.10;102894.47;6024523;29;20511;-75
2021/12/22 03:23:22;;;;;;;3.53;3.23;;;;;;;-7.19;62.93;102900.13;6024268;29;20417;-75
2021/12/22 03:26:26;;;;;;;9.57;4.20;;;;;;;-7.27;64.17;102894.31;6024332;29;20496;-75
2021/12/22 03:29:33;;;;;;;6.90;3.80;;;;;;;-7.06;63.62;102903.03;6025375;29;20201;-75
2021/12/22 03:32:37;;;;;;;6.13;3.97;;;;;;;-7.48;64.97;102895.41;6025117;29;20194;-75
2021/12/22 03:35:42;;;;;;;4.43;4.00;;;;;;;-7.20;63.88;102887.72;6024083;29;20305;-75
2021/12/22 03:38:48;;;;;;;5.83;3.83;;;;;;;-7.16;63.15;102891.97;6025384;29;20193;-75
2021/12/22 03:41:52;;;;;;;5.00;4.17;;;;;;;-7.28;62.97;102895.25;6025066;29;20197;-75
2021/12/22 03:44:56;;;;;;;4.93;3.40;;;;;;;-7.27;62.99;102894.31;6024044;29;20214;-75
2021/12/22 03:48:01;;;;;;;3.70;3.40;;;;;;;-7.23;62.76;102880.72;6024913;29;20193;-75
2021/12/22 03:51:05;;;;;;;5.03;3.87;;;;;;;-7.09;62.66;102888.03;6024035;29;20500;-75
2021/12/22 03:54:14;;;;;;;4.00;3.60;;;;;;;-7.42;62.46;102873.75;6023946;29;20257;-75
2021/12/22 03:57:18;;;;;;;9.13;3.93;;;;;;;-7.30;62.77;102876.66;6023744;29;20249;-75
2021/12/22 04:00:22;;;;;;;6.60;3.93;;;;;;;-7.28;62.45;102871.22;6025200;29;20246;-75
2021/12/22 04:03:32;;;;;;;11.40;4.37;;;;;;;-7.37;64.20;102877.91;6023871;29;20509;-75
2021/12/22 04:06:38;;;;;;;3.53;3.33;;;;;;;-7.14;63.50;102863.38;6024422;29;20260;-75
2021/12/22 04:09:43;;;;;;;3.97;3.53;;;;;;;-7.28;63.72;102871.22;6025211;29;20209;-75
2021/12/22 04:12:50;;;;;;;3.23;3.00;;;;;;;-7.28;63.17;102881.91;6024763;29;20245;-75
2021/12/22 04:15:54;;;;;;;4.10;3.87;;;;;;;-7.43;63.80;102877.34;6024657;29;20221;-75
2021/12/22 04:19:00;;;;;;;3.87;3.57;;;;;;;-6.95;63.31;102877.47;6024687;29;20194;-75
2021/12/22 04:22:06;;;;;;;3.40;3.20;;;;;;;-7.53;64.94;102876.97;6024163;29;20201;-75
2021/12/22 04:25:20;;;;;;;5.13;3.73;;;;;;;-7.62;66.28;102874.72;6023985;29;20196;-75
2021/12/22 04:28:24;;;;;;;4.70;3.00;;;;;;;-7.38;65.39;102880.66;6027916;29;20192;-75
2021/12/22 04:31:28;;;;;;;4.57;3.40;;;;;;;-7.38;64.88;102869.97;6028895;29;20193;-75
2021/12/22 04:34:32;;;;;;;4.27;3.60;;;;;;;-7.46;63.83;102874.84;6029116;29;20194;-75
2021/12/22 04:37:37;;;;;;;3.97;3.70;;;;;;;-7.23;63.00;102863.84;6028629;29;20227;-75
2021/12/22 04:40:42;;;;;;;6.23;3.50;;;;;;;-7.51;64.08;102879.53;6028105;29;20248;-75
2021/12/22 04:43:46;;;;;;;5.37;3.20;;;;;;;-7.19;63.58;102871.63;6028939;29;20241;-75
2021/12/22 04:46:51;;;;;;;3.40;3.20;;;;;;;-7.21;63.50;102878.00;6028970;29;20323;-75
2021/12/22 04:49:55;;;;;;;3.73;3.23;;;;;;;-7.17;63.38;102868.88;6028554;29;20193;-75
2021/12/22 04:53:04;;;;;;;7.17;3.70;;;;;;;-7.10;63.14;102870.28;6028469;29;20258;-75
2021/12/22 04:56:11;;;;;;;10.17;4.40;;;;;;;-7.29;63.64;102872.19;6028667;29;20217;-75
2021/12/22 04:59:15;;;;;;;5.80;3.20;;;;;;;-6.99;61.92;102873.25;6028570;29;20195;-75
2021/12/22 05:02:20;;;;;;;3.33;3.13;;;;;;;-6.96;62.98;102862.41;6027613;29;20217;-75
2021/12/22 05:05:25;;;;;;;9.60;4.10;;;;;;;-7.39;63.59;102866.44;6027550;29;20195;-75
2021/12/22 05:08:29;;;;;;;5.73;3.70;;;;;;;-7.41;64.58;102870.13;6028306;29;20209;-75
2021/12/22 05:11:36;;;;;;;3.30;3.10;;;;;;;-7.65;65.44;102872.25;6027376;29;20541;-75
2021/12/22 05:14:42;;;;;;;3.40;3.17;;;;;;;-7.33;64.45;102873.28;6028025;29;20202;-75
2021/12/22 05:18:12;;;;;;;3.43;3.20;;;;;;;-7.68;65.56;102868.84;6026813;29;20299;-75
2021/12/22 05:21:17;;;;;;;4.67;4.00;;;;;;;-8.05;67.07;102873.31;6027848;29;20203;-75
2021/12/22 05:24:21;;;;;;;3.13;2.93;;;;;;;-7.85;66.54;102881.22;6027771;29;20265;-75
2021/12/22 05:27:27;;;;;;;6.53;3.73;;;;;;;-7.45;65.55;102873.91;6028013;29;20238;-75
2021/12/22 05:30:31;;;;;;;7.47;3.07;;;;;;;-7.78;65.92;102876.47;6028029;29;20193;-76
2021/12/22 05:33:36;;;;;;;3.77;3.43;;;;;;;-7.96;66.73;102875.56;6026639;29;20229;-75
2021/12/22 05:36:40;;;;;;;3.03;3.00;;;;;;;-7.91;66.88;102875.34;6026628;29;20222;-75
2021/12/22 05:39:44;;;;;;;3.43;3.30;;;;;;;-7.39;65.31;102879.78;6027464;29;20225;-75
2021/12/22 05:42:50;;;;;;;4.60;4.07;;;;;;;-7.45;65.01;102874.78;6027612;29;20261;-75
2021/12/22 05:45:54;;;;;;;3.73;3.37;;;;;;;-7.80;66.16;102873.00;6026253;29;20197;-75
2021/12/22 05:48:58;;;;;;;4.17;3.77;;;;;;;-7.62;65.60;102866.72;6026120;29;20193;-75
2021/12/22 05:52:04;;;;;;;8.07;3.70;;;;;;;-7.52;64.90;102877.84;6026147;29;20382;-75
2021/12/22 05:55:08;;;;;;;3.07;2.87;;;;;;;-7.55;65.48;102883.31;6026112;29;20417;-75
2021/12/22 05:58:17;;;;;;;4.43;3.20;;;;;;;-7.63;65.45;102874.81;6027136;29;20228;-75
2021/12/22 06:01:21;;;;;;;4.90;4.03;;;;;;;-7.17;64.44;102875.09;6026878;29;20222;-75
2021/12/22 06:04:26;;;;;;;3.40;3.30;;;;;;;-7.53;65.39;102878.75;6026384;29;20223;-76
2021/12/22 06:07:30;;;;;;;4.07;3.70;;;;;;;-7.69;65.76;102880.47;6027045;29;20227;-75
2021/12/22 06:10:35;;;;;;;3.63;3.17;;;;;;;-7.65;65.27;102887.38;6026240;29;20253;-75
2021/12/22 06:13:41;;;;;;;3.90;3.70;;;;;;;-7.32;64.60;102891.03;6025602;29;20510;-75
2021/12/22 06:16:45;;;;;;;6.20;3.97;;;;;;;-7.28;64.21;102887.25;6026542;29;20227;-75
2021/12/22 06:19:49;;;;;;;6.83;3.57;;;;;;;-7.05;63.10;102883.38;6025547;29;20205;-75
2021/12/22 06:22:54;;;;;;;4.13;3.77;;;;;;;-7.33;64.19;102890.16;6025782;29;20217;-75
2021/12/22 06:25:59;;;;;;;3.77;3.20;;;;;;;-7.60;64.66;102890.69;6026555;29;20192;-74
2021/12/22 06:29:04;;;;;;;5.37;3.60;;;;;;;-7.67;65.43;102894.59;6026583;29;20193;-75
2021/12/22 06:32:09;;;;;;;7.17;3.67;;;;;;;-7.73;65.39;102895.78;6026571;29;20196;-75
2021/12/22 06:35:14;;;;;;;7.00;3.50;;;;;;;-7.69;64.23;102896.47;6025169;29;20195;-75
2021/12/22 06:38:18;;;;;;;4.63;4.20;;;;;;;-8.01;63.66;102890.06;6024827;29;20220;-75
2021/12/22 06:41:22;;;;;;;11.83;4.27;;;;;;;-7.98;63.77;102896.09;6025926;29;20236;-75
2021/12/22 06:44:28;;;;;;;9.73;3.93;;;;;;;-8.17;63.78;102892.59;6024971;29;20416;-75
2021/12/22 06:47:32;;;;;;;14.97;4.20;;;;;;;-8.35;64.50;102900.56;6025602;29;20196;-75
2021/12/22 06:50:36;;;;;;;7.67;4.10;;;;;;;-8.06;63.37;102902.75;6024701;29;20483;-74
2021/12/22 06:53:41;;;;;;;22.07;5.73;;;;;;;-8.07;63.67;102899.19;6024698;29;20197;-75
2021/12/22 06:56:45;;;;;;;13.63;4.43;;;;;;;-7.89;62.92;102887.66;6025571;29;20220;-75
2021/12/22 06:59:50;;;;;;;11.27;4.73;;;;;;;-7.95;62.28;102893.28;6025609;29;20197;-75
2021/12/22 07:02:56;;;;;;;5.33;4.43;;;;;;;-8.39;63.55;102899.84;6025783;29;20193;-75
2021/12/22 07:06:00;;;;;;;7.97;4.23;;;;;;;-8.18;63.36;102893.50;6024444;29;20194;-75
2021/12/22 07:09:06;;;;;;;19.97;5.40;;;;;;;-8.19;63.47;102899.78;6024190;29;20212;-74
2021/12/22 07:12:12;;;;;;;14.10;4.33;;;;;;;-7.96;62.70;102894.22;6024841;29;20307;-75
2021/12/22 07:15:19;;;;;;;11.07;4.10;;;;;;;-7.76;62.53;102885.25;6024354;29;20194;-74
2021/12/22 07:18:24;;;;;;;6.73;4.17;;;;;;;-8.09;63.33;102893.09;6024157;29;20531;-74
2021/12/22 07:21:28;;;;;;;7.43;3.70;;;;;;;-8.17;63.96;102892.59;6024672;29;20281;-74
2021/12/22 07:24:32;;;;;;;20.47;3.63;;;;;;;-7.98;63.36;102896.09;6024984;29;20194;-75
2021/12/22 07:27:37;;;;;;;10.87;4.13;;;;;;;-7.88;62.54;102900.03;6025234;29;20298;-74
2021/12/22 07:30:43;;;;;;;7.10;4.03;;;;;;;-7.73;62.30;102908.25;6024034;29;20195;-74
2021/12/22 07:33:53;;;;;;;12.67;4.37;;;;;;;-7.96;63.12;102899.56;6025170;29;20197;-74
2021/12/22 07:37:04;;;;;;;4.47;3.23;;;;;;;-7.73;62.58;102900.22;6023837;29;20226;-74
2021/12/22 07:40:12;;;;;;;4.57;3.50;;;;;;;-7.64;62.28;102900.63;6024050;29;20194;-74
2021/12/22 07:43:36;;;;;;;5.73;4.67;;;;;;;-7.78;62.33;102902.25;6024197;29;20189;-74
2021/12/22 07:46:42;;;;;;;8.03;4.07;;;;;;;-7.71;63.01;102909.03;6024633;29;20225;-74
2021/12/22 07:49:46;;;;;;;6.67;4.00;;;;;;;-7.91;63.77;102902.00;6023867;29;20382;-73
2021/12/22 07:52:50;;;;;;;6.03;3.97;;;;;;;-7.92;63.87;102906.47;6024527;29;20201;-74
2021/12/22 07:55:55;;;;;;;9.57;4.60;;;;;;;-7.70;63.03;102895.63;6023854;29;20222;-73
2021/12/22 07:58:59;;;;;;;9.13;5.03;;;;;;;-7.67;63.18;102894.59;6023614;29;20543;-73
2021/12/22 08:02:06;;;;;;;5.07;4.23;;;;;;;-7.48;62.68;102895.41;6028047;29;20200;-75
2021/12/22 08:05:14;;;;;;;13.23;3.67;;;;;;;-7.55;63.08;102899.31;6028886;29;20215;-74
2021/12/22 08:08:20;;;;;;;7.63;4.53;;;;;;;-7.53;62.95;102892.09;6028617;29;20449;-75
2021/12/22 08:11:26;;;;;;;14.67;3.67;;;;;;;-7.62;63.04;102897.91;6028828;29;20253;-73
2021/12/22 08:14:30;;;;;;;14.07;3.70;;;;;;;-7.56;63.42;102887.78;6029033;29;20198;-74
2021/12/22 08:17:36;;;;;;;7.60;3.27;;;;;;;-7.44;62.89;102886.31;6027871;29;20561;-74
2021/12/22 08:20:41;;;;;;;3.27;3.07;;;;;;;-7.49;63.10;102891.03;6028893;29;20202;-75
2021/12/22 08:23:46;;;;;;;3.57;3.37;;;;;;;-7.87;63.76;102908.91;6028883;29;20197;-74
2021/12/22 08:26:51;;;;;;;7.93;3.93;;;;;;;-7.98;63.71;102895.25;6028134;29;20193;-74
2021/12/22 08:29:55;;;;;;;6.77;4.00;;;;;;;-7.47;62.63;102891.81;6028018;29;20198;-74
2021/12/22 08:33:05;;;;;;;5.77;4.57;;;;;;;-7.77;63.10;102898.66;6012749;29;20213;-75
2021/12/22 08:39:32;;;;;;;7.60;4.47;;;;;;;-7.36;61.37;102873.41;6028537;29;20222;-74
2021/12/22 08:42:37;;;;;;;8.27;4.70;;;;;;;-7.45;62.09;102872.09;6027685;29;20210;-76
2021/12/22 08:45:42;;;;;;;5.70;4.27;;;;;;;-7.38;61.25;102872.63;6029032;29;20201;-74
2021/12/22 08:48:47;;;;;;;10.13;4.33;;;;;;;-7.36;62.75;102865.41;6027648;29;20481;-75
2021/12/22 08:51:52;;;;;;;6.73;3.67;;;;;;;-7.50;63.01;102870.59;6028519;29;20194;-75
2021/12/22 08:54:56;;;;;;;6.77;4.67;;;;;;;-7.22;62.43;102870.91;6027611;29;20207;-75
2021/12/22 08:58:00;;;;;;;14.43;4.10;;;;;;;-7.51;63.17;102868.88;6028253;29;20291;-75
2021/12/22 09:01:08;;;;;;;7.37;4.10;;;;;;;-7.39;63.60;102873.59;6028274;29;20194;-75
2021/12/22 09:04:15;;;;;;;9.17;4.67;;;;;;;-7.40;63.94;102867.41;6027245;29;20489;-75
2021/12/22 09:07:19;;;;;;;4.13;3.83;;;;;;;-7.53;64.31;102866.28;6027922;29;20250;-75
2021/12/22 09:10:24;;;;;;;6.43;4.87;;;;;;;-7.14;63.59;102852.69;6028039;29;20245;-75
2021/12/22 09:13:28;;;;;;;12.67;5.23;;;;;;;-7.16;63.18;102859.94;6026975;29;20193;-75
2021/12/22 09:16:33;;;;;;;10.57;4.33;;;;;;;-7.41;64.21;102867.44;6027960;29;20195;-75
2021/12/22 09:19:39;;;;;;;4.90;4.43;;;;;;;-7.52;63.95;102862.69;6026749;29;20318;-74
2021/12/22 09:22:43;;;;;;;10.83;5.27;;;;;;;-7.37;63.71;102856.56;6027704;29;20225;-75
2021/12/22 09:25:47;;;;;;;15.97;5.77;;;;;;;-7.69;63.83;102859.13;6027856;29;20243;-74
2021/12/22 09:28:54;;;;;;;13.33;5.73;;;;;;;-7.61;63.69;102856.94;6027810;29;20197;-74
2021/12/22 09:31:58;;;;;;;12.33;5.83;;;;;;;-7.28;62.46;102855.22;6027335;29;20201;-73
2021/12/22 09:35:06;;;;;;;12.70;6.10;;;;;;;-7.07;62.21;102859.44;6027304;29;20343;-74
2021/12/22 09:38:11;;;;;;;15.37;6.70;;;;;;;-7.44;62.80;102859.63;6027684;29;20295;-73
2021/12/22 09:41:16;;;;;;;17.50;6.67;;;;;;;-7.28;62.29;102860.53;6026257;29;20506;-73
2021/12/22 09:44:30;;;;;;;11.90;5.93;;;;;;;-6.99;61.65;102851.88;6026637;29;20194;-73
2021/12/22 09:47:49;;;;;;;14.80;5.87;;;;;;;-6.95;61.83;102853.44;6027119;29;20242;-74
2021/12/22 09:52:16;;;;;;;32.40;6.13;;;;;;;-6.82;61.76;102850.97;6026268;29;20429;-74
2021/12/22 09:54:21;;;;;;;11.67;4.93;;;;;;;-6.98;62.17;102847.41;6026983;29;20211;-73
2021/12/22 09:57:25;;;;;;;19.43;5.77;;;;;;;-6.58;60.89;102847.84;6027275;29;20193;-73
2021/12/22 10:00:32;;;;;;;16.50;5.23;;;;;;;-6.50;60.31;102839.41;6026344;29;20251;-73
2021/12/22 10:03:38;;;;;;;12.67;5.20;;;;;;;-6.53;60.98;102835.09;6027274;29;20199;-73
2021/12/22 10:06:44;;;;;;;11.27;5.17;;;;;;;-6.35;60.16;102843.03;6025934;29;20483;-74
2021/12/22 10:09:49;;;;;;;13.07;5.30;;;;;;;-6.69;60.92;102855.59;6026722;29;20258;-73
2021/12/22 10:13:05;;;;;;;29.00;5.50;;;;;;;-6.37;61.21;102850.28;6026586;29;20238;-74
2021/12/22 10:16:13;;;;;;;9.60;5.40;;;;;;;-6.12;61.25;102835.44;6025531;29;20258;-73
2021/12/22 10:19:18;;;;;;;27.00;5.53;;;;;;;-5.83;60.06;102839.13;6025573;29;20521;-75
2021/12/22 10:22:30;;;;;;;10.13;4.80;;;;;;;-6.08;61.16;102833.47;6026322;29;20262;-75
2021/12/22 10:25:34;;;;;;;11.97;4.87;;;;;;;-5.85;60.38;102825.00;6025070;29;20217;-74
2021/12/22 10:28:48;;;;;;;18.63;5.27;;;;;;;-5.93;60.90;102819.22;6025284;29;20421;-74
2021/12/22 10:31:52;;;;;;;11.00;6.23;;;;;;;-5.63;60.85;102821.91;6026616;29;20312;-73
2021/12/22 10:34:59;;;;;;;8.87;4.43;;;;;;;-5.73;60.70;102821.59;6026132;29;20247;-74
2021/12/22 10:38:07;;;;;;;8.73;5.20;;;;;;;-5.57;60.16;102811.72;6025179;29;20562;-73
2021/12/22 10:41:12;;;;;;;6.00;4.90;;;;;;;-5.44;60.48;102807.31;6025025;29;20229;-73
2021/12/22 10:44:17;;;;;;;24.80;5.20;;;;;;;-5.40;60.95;102806.19;6026240;29;20203;-74
2021/12/22 10:47:34;;;;;;;15.90;4.97;;;;;;;-5.32;60.76;102801.25;6025173;29;20261;-73
2021/12/22 10:50:39;;;;;;;6.30;5.00;;;;;;;-4.94;59.83;102798.88;6026353;29;20199;-75
2021/12/22 10:53:48;;;;;;;11.87;4.33;;;;;;;-4.88;59.65;102794.97;6026231;29;20195;-73
2021/12/22 10:56:59;;;;;;;14.90;4.40;;;;;;;-5.02;60.65;102792.28;6024872;29;20196;-74
2021/12/22 11:00:14;;;;;;;8.03;4.60;;;;;;;-4.90;60.92;102791.53;6024650;29;20226;-74
2021/12/22 11:03:34;;;;;;;8.53;4.07;;;;;;;-4.61;60.16;102782.50;6025984;29;20208;-74
2021/12/22 11:06:39;;;;;;;5.03;4.20;;;;;;;-4.44;59.96;102790.34;6025194;29;20202;-74
2021/12/22 11:09:46;;;;;;;14.43;4.80;;;;;;;-4.55;60.64;102787.47;6008588;29;20222;-73
2021/12/22 11:13:00;;;;;;;11.60;5.47;;;;;;;-4.29;60.40;102789.34;6025288;29;20306;-73
2021/12/22 11:16:12;;;;;;;17.90;5.27;;;;;;;-4.09;59.94;102775.47;6024553;29;20227;-75
2021/12/22 11:19:16;;;;;;;13.50;5.43;;;;;;;-4.32;61.11;102784.16;6025613;29;20226;-75
2021/12/22 11:22:26;;;;;;;6.20;5.10;;;;;;;-4.35;60.65;102783.50;6025271;29;20199;-75
2021/12/22 11:25:32;;;;;;;14.87;4.83;;;;;;;-4.29;60.41;102785.78;6024810;29;20417;-75
2021/12/22 11:28:37;;;;;;;14.40;4.60;;;;;;;-4.39;60.92;102780.16;6024323;29;20254;-75
2021/12/22 11:31:42;;;;;;;6.43;4.20;;;;;;;-4.25;60.67;102789.97;6025257;29;20198;-75
2021/12/22 11:34:50;;;;;;;6.53;4.33;;;;;;;-4.18;61.16;102781.44;6025318;29;20196;-75
2021/12/22 11:37:56;;;;;;;5.90;4.20;;;;;;;-4.01;59.86;102789.25;6025032;29;20222;-75
2021/12/22 11:41:11;;;;;;;13.43;4.00;;;;;;;-4.06;60.79;102777.97;6024147;29;20586;-75
2021/12/22 11:44:15;;;;;;;4.87;4.03;;;;;;;-4.00;60.42;102777.53;6025021;29;20194;-74
2021/12/22 11:47:21;;;;;;;7.63;4.13;;;;;;;-3.94;59.81;102778.09;6025442;29;20231;-75
2021/12/22 11:50:29;;;;;;;11.43;5.10;;;;;;;-3.96;60.25;102763.91;6025009;29;20204;-75
2021/12/22 11:53:54;;;;;;;14.67;6.13;;;;;;;-4.20;60.07;102767.25;6023951;29;20214;-74
2021/12/22 11:57:00;;;;;;;8.57;6.07;;;;;;;-4.10;60.17;102765.69;6025379;29;20193;-74
2021/12/22 12:00:20;;;;;;;7.37;5.77;;;;;;;-3.97;60.00;102759.53;6025320;29;20291;-74
2021/12/22 12:03:30;;;;;;;14.50;5.57;;;;;;;-4.08;59.76;102760.25;6023459;29;20491;-74
2021/12/22 12:06:47;;;;;;;11.67;5.27;;;;;;;-3.97;59.64;102751.47;6024565;29;20255;-74
2021/12/22 12:09:52;;;;;;;6.90;4.23;;;;;;;-4.15;59.24;102757.09;6024674;29;20218;-74
2021/12/22 12:13:04;;;;;;;6.43;4.43;;;;;;;-3.84;59.75;102749.66;6024893;29;20242;-74
2021/12/22 12:23:31;;;;;;;8.03;3.73;;;;;;;-3.48;57.94;102739.09;6023910;29;20360;-74
2021/12/22 12:26:40;;;;;;;16.70;5.87;;;;;;;-3.52;58.30;102737.59;6025314;29;20193;-74
2021/12/22 12:29:59;;;;;;;16.87;5.33;;;;;;;-3.52;58.17;102726.84;6024812;29;20192;-74
2021/12/22 12:33:10;;;;;;;18.07;5.63;;;;;;;-3.52;57.89;102726.84;6024752;29;20283;-74
2021/12/22 12:36:16;;;;;;;14.77;6.43;;;;;;;-3.64;58.81;102738.44;6025071;29;20199;-73
2021/12/22 12:39:55;;;;;;;9.73;5.83;;;;;;;-3.70;58.99;102741.53;6025291;29;20216;-73
2021/12/22 12:43:00;;;;;;;20.23;6.93;;;;;;;-3.78;58.86;102730.47;6023898;29;20204;-74
2021/12/22 12:46:28;;;;;;;15.60;6.27;;;;;;;-4.00;59.04;102720.34;6024863;29;20192;-74
2021/12/22 12:49:42;;;;;;;7.53;4.93;;;;;;;-3.79;59.18;102712.63;6027586;29;20215;-74
2021/12/22 12:52:47;;;;;;;8.50;5.30;;;;;;;-3.83;58.37;102711.13;6027443;29;20364;-74
2021/12/22 12:56:07;;;;;;;16.80;5.20;;;;;;;-3.98;59.19;102717.53;6028577;29;20232;-74
2021/12/22 12:59:14;;;;;;;9.53;4.23;;;;;;;-3.77;57.71;102710.72;6028489;29;20193;-74
2021/12/22 13:02:28;;;;;;;7.70;4.10;;;;;;;-3.75;57.46;102708.78;6028187;29;20223;-74
2021/12/22 13:05:33;;;;;;;4.03;3.67;;;;;;;-3.61;57.11;102700.63;6027293;29;20502;-75
2021/12/22 13:08:37;;;;;;;8.00;3.90;;;;;;;-3.60;56.58;102697.84;6027522;29;20355;-74
2021/12/22 13:11:55;;;;;;;4.30;3.90;;;;;;;-3.69;56.38;102703.00;6027242;29;20427;-74
2021/12/22 13:18:30;;;;;;;5.07;3.70;;;;;;;-3.87;56.39;102696.22;6026974;29;20193;-74
2021/12/22 13:21:35;;;;;;;4.40;2.70;;;;;;;-4.06;56.65;102696.59;6027869;29;20228;-74
2021/12/22 13:24:39;;;;;;;2.90;2.70;;;;;;;-3.82;55.69;102694.06;6027711;29;20200;-74
2021/12/22 13:27:46;;;;;;;3.70;2.77;;;;;;;-3.61;54.25;102689.88;6028011;29;20219;-75
2021/12/22 13:30:54;;;;;;;6.00;3.03;;;;;;;-3.73;55.48;102682.69;6027936;29;20196;-74
2021/12/22 13:34:03;;;;;;;6.43;3.20;;;;;;;-4.08;55.94;102688.63;6026718;29;20498;-76
2021/12/22 13:37:10;;;;;;;5.43;3.10;;;;;;;-3.65;54.43;102683.00;6027796;29;20192;-74
2021/12/22 13:40:32;;;;;;;4.27;2.90;;;;;;;-4.03;56.19;102683.81;6028000;29;20211;-74
2021/12/22 13:43:39;;;;;;;3.23;3.03;;;;;;;-3.81;56.12;102682.34;6027737;29;20193;-74
2021/12/22 13:46:48;;;;;;;3.30;3.10;;;;;;;-3.90;56.56;102672.25;6027765;29;20241;-74
2021/12/22 13:49:54;;;;;;;5.07;3.33;;;;;;;-3.92;57.07;102671.50;6027627;29;20192;-73
2021/12/22 13:52:59;;;;;;;3.20;2.90;;;;;;;-3.90;57.53;102673.13;6027249;29;20203;-73
2021/12/22 13:56:03;;;;;;;5.23;3.63;;;;;;;-3.92;57.73;102663.44;6026412;29;20224;-73
2021/12/22 13:59:10;;;;;;;6.80;3.23;;;;;;;-3.78;57.96;102666.03;6026397;29;20267;-73
2021/12/22 14:02:32;;;;;;;3.73;3.33;;;;;;;-3.58;57.10;102665.50;6026027;29;20336;-74
2021/12/22 14:05:39;;;;;;;10.93;3.63;;;;;;;-3.95;58.22;102663.66;6026726;29;20267;-74
2021/12/22 14:08:43;;;;;;;5.00;3.70;;;;;;;-4.08;58.34;102669.84;6027065;29;20264;-73
2021/12/22 14:11:50;;;;;;;2.97;2.77;;;;;;;-4.13;58.45;102655.88;6027080;29;20239;-73
2021/12/22 14:14:56;;;;;;;3.63;3.43;;;;;;;-3.68;56.91;102656.38;6026892;29;20193;-73
2021/12/22 14:18:00;;;;;;;5.40;3.47;;;;;;;-3.94;57.11;102654.63;6026794;29;20192;-74
2021/12/22 14:21:20;;;;;;;4.00;3.67;;;;;;;-3.92;57.23;102647.34;6025907;29;20241;-74
2021/12/22 14:24:30;;;;;;;3.73;3.47;;;;;;;-3.85;56.89;102649.50;6025966;29;20192;-74
2021/12/22 14:27:37;;;;;;;4.73;3.43;;;;;;;-3.93;56.75;102634.88;6026856;29;20233;-73
2021/12/22 14:30:42;;;;;;;3.67;3.37;;;;;;;-3.73;56.11;102637.03;6026418;29;20192;-73
2021/12/22 14:34:03;;;;;;;4.77;3.23;;;;;;;-3.66;55.99;102632.94;6025316;29;20502;-73
2021/12/22 14:37:10;;;;;;;3.47;3.27;;;;;;;-3.68;56.56;102629.50;6026240;29;20193;-73
2021/12/22 14:40:18;;;;;;;3.83;3.53;;;;;;;-3.52;55.64;102619.41;6026512;29;20193;-73
2021/12/22 14:43:33;;;;;;;5.77;3.30;;;;;;;-3.84;55.63;102629.72;6025435;29;20221;-73
2021/12/22 14:46:38;;;;;;;4.50;3.37;;;;;;;-3.61;54.99;102622.75;6026021;29;20200;-74
2021/12/22 14:49:42;;;;;;;6.57;4.03;;;;;;;-3.93;55.51;102621.47;6026370;29;20213;-73
2021/12/22 14:52:59;;;;;;;2.73;2.53;;;;;;;-3.46;54.99;102624.34;6026101;29;20197;-74